Terminal Aerodrome Forecast
Issued by NWS La Crosse, WI

Home | Current Version | Previous Version | Text Only | Print | Product List | Glossary On
Versions: 1 2 3 4 5 6 7 8 9 10 11 12 13 14 15 16 17 18
000
FTUS43 KARX 241731
TAFRST
TAF
KRST 241731Z 2418/2518 12014KT 4SM -SHRA BR OVC012
      TEMPO 2418/2421 BKN009 OVC020
     FM242100 31008KT P6SM BKN012
     FM250100 30006KT P6SM SKC
     FM250800 25005KT 2SM BR SKC
     FM251400 27014KT P6SM SCT035=

USA.gov is the U.S. government's official web portal to all federal, state and local government web resources and services.